Bay Bridge — 3FCS5 — position and weather

sailwx.info

Track history (hours):
 
Tides and Currents Weather Stations Pressure Air Temp Water Temp Dewpoint Dewpoint Depression Visibility Wind Speed Wind Dir Waves Ship Positions

Bay Bridge

Last reported at 2017-Dec-02 14:46 UTC. Time now 2017-Dec-14 08:18 UTC.
Position N 34°48' E 140°15'.
Warning: this ship's position is 11 days out of date.

Length 267 m; draft 10.9 m.

Type: Ship (hazmat cat A). MMSI: 354120000.

Date/timePositionNaut miles runAvg speedWind from/ knotsBaromVisibWave heightAir tempDewpointWater temp
2017-Dec-02 14:46N 34°48' E 140°15'2220.2
2017-Dec-02 13:40N 34°52' E 139°49'320.1
2017-Dec-02 13:30N 34°54' E 139°45'1121.2
2017-Dec-02 13:00N 35°04' E 139°43'817.1
2017-Dec-02 12:30N 35°12' E 139°46'612.3
2017-Dec-02 12:00N 35°18' E 139°44'713.9
2017-Dec-02 11:30N 35°25' E 139°43'816.6
2017-Dec-02 11:01N 35°30' E 139°51'713.8
2017-Dec-02 10:30N 35°36' E 139°47'1 2.3
2017-Dec-02 09:59N 35°37' E 139°46'0 0.0
2017-Dec-02 09:29N 35°37' E 139°46'0 0.0
2017-Dec-02 08:59N 35°37' E 139°46'0 0.0
2017-Dec-02 08:29N 35°37' E 139°46'0 0.0
2017-Dec-02 07:59N 35°37' E 139°46'0 0.0
2017-Dec-02 07:29N 35°37' E 139°46'0 0.0
2017-Dec-02 06:59N 35°37' E 139°46'0 0.0
2017-Dec-02 06:29N 35°37' E 139°46'0 0.0
2017-Dec-02 05:59N 35°37' E 139°46'0 0.0
2017-Dec-02 05:29N 35°37' E 139°46'0 0.0
2017-Dec-02 04:59N 35°37' E 139°46'0 0.0
2017-Dec-02 04:29N 35°37' E 139°46'0 0.0
2017-Dec-02 03:59N 35°37' E 139°46'0 0.0
2017-Dec-02 03:29N 35°37' E 139°46'0 0.0
2017-Dec-02 02:59N 35°37' E 139°46'0 0.0
2017-Dec-02 02:29N 35°37' E 139°46'0 0.0
2017-Dec-02 01:59N 35°37' E 139°46'0 0.0
2017-Dec-02 01:29N 35°37' E 139°46'0 0.0
2017-Dec-02 00:59N 35°37' E 139°46'0 0.0
2017-Dec-02 00:29N 35°37' E 139°46'0 0.0
2017-Dec-01 23:59N 35°37' E 139°46'0 0.0
2017-Dec-01 23:29N 35°37' E 139°46'0 0.0
2017-Dec-01 22:59N 35°37' E 139°46'0 0.0
2017-Dec-01 22:29N 35°37' E 139°46'0 0.1
2017-Dec-01 22:00N 35°37' E 139°46'2 4.9
2017-Dec-01 21:30N 35°35' E 139°48'612.8
2017-Dec-01 21:01N 35°29' E 139°52'714.6
2017-Dec-01 20:30N 35°24' E 139°46'611.9
2017-Dec-01 20:00N 35°18' E 139°44'612.7
2017-Dec-01 19:30N 35°12' E 139°47'5 9.5
2017-Dec-01 19:00N 35°07' E 139°46'5 9.7
2017-Dec-01 18:31N 35°03' E 139°44'611.8
2017-Dec-01 18:00N 34°57' E 139°41'611.8
2017-Dec-01 17:30N 34°52' E 139°39'611.6
2017-Dec-01 17:00N 34°46' E 139°37'2 1.7
2017-Dec-01 15:48N 34°44' E 139°38'1 1.9
2017-Dec-01 15:30N 34°45' E 139°39'2 2.0
2017-Dec-01 14:39N 34°46' E 139°39'0 2.2
2017-Dec-01 14:30N 34°47' E 139°39'0 0.9
2017-Dec-01 14:00N 34°47' E 139°39'1 0.6
2017-Dec-01 12:46N 34°48' E 139°39'2 6.9
2017-Dec-01 12:30N 34°47' E 139°38'814.3
2017-Dec-01 11:56N 34°41' E 139°31'1113.2
2017-Dec-01 11:08N 34°36' E 139°20'214.7
2017-Dec-01 11:00N 34°35' E 139°18'814.4
2017-Dec-01 10:27N 34°34' E 139°08'817.6
2017-Dec-01 09:58N 34°33' E 138°58'815.9
2017-Dec-01 09:27N 34°34' E 138°48'716.0
2017-Dec-01 09:00N 34°38' E 138°40'4 8.6
2017-Dec-01 08:31N 34°42' E 138°39'4 8.2
2017-Dec-01 08:01N 34°46' E 138°38'4 8.5
2017-Dec-01 07:30N 34°50' E 138°36'5 9.5
2017-Dec-01 07:01N 34°54' E 138°35'611.2
2017-Dec-01 06:30N 34°60' E 138°33'3 5.3
2017-Dec-01 06:01N 35°02' E 138°31'1 1.2
2017-Dec-01 05:30N 35°02' E 138°31'0 0.0
2017-Dec-01 05:00N 35°02' E 138°31'0 0.0
2017-Dec-01 04:30N 35°02' E 138°31'0 0.0
2017-Dec-01 04:00N 35°02' E 138°31'0 0.0
2017-Dec-01 03:30N 35°02' E 138°31'0 0.0
2017-Dec-01 03:00N 35°02' E 138°31'0 0.0
2017-Dec-01 02:30N 35°02' E 138°31'0 0.0
2017-Dec-01 02:00N 35°02' E 138°31'0 0.0
2017-Dec-01 01:30N 35°02' E 138°31'0 0.0
2017-Dec-01 01:00N 35°02' E 138°31'0 0.0
2017-Dec-01 00:30N 35°02' E 138°31'0 0.0
2017-Dec-01 00:00N 35°02' E 138°31'0 0.0
2017-Nov-30 23:30N 35°02' E 138°31'0 0.0
2017-Nov-30 23:00N 35°02' E 138°31'0 0.0
2017-Nov-30 22:30N 35°02' E 138°31'0 0.0
2017-Nov-30 22:00N 35°02' E 138°31'1 2.1
2017-Nov-30 21:31N 35°02' E 138°32'4 8.6
2017-Nov-30 21:01N 34°58' E 138°34'714.1
2017-Nov-30 20:30N 34°51' E 138°30'714.3
2017-Nov-30 20:00N 34°45' E 138°26'713.7
2017-Nov-30 19:30N 34°39' E 138°23'713.1
2017-Nov-30 19:00N 34°33' E 138°20'713.9
2017-Nov-30 18:30N 34°29' E 138°12'814.5
2017-Nov-30 17:57N 34°29' E 138°03'715.2
2017-Nov-30 17:29N 34°29' E 137°54'1015.2
2017-Nov-30 16:52N 34°29' E 137°43'1314.8
2017-Nov-30 15:58N 34°29' E 137°27'2713.2
2017-Nov-30 13:54N 34°37' E 136°55'918.3
2017-Nov-30 13:24N 34°44' E 136°48'718.0
2017-Nov-30 13:00N 34°51' E 136°46'917.0
2017-Nov-30 12:30N 34°59' E 136°49'3 6.6
2017-Nov-30 12:00N 35°02' E 136°50'0 0.2
2017-Nov-30 11:27N 35°02' E 136°50'0 0.0
2017-Nov-30 11:00N 35°02' E 136°50'0 0.0
2017-Nov-30 10:30N 35°02' E 136°50'0 0.0
2017-Nov-30 10:00N 35°02' E 136°50'0 0.0
2017-Nov-30 09:30N 35°02' E 136°50'0 0.0
2017-Nov-30 08:57N 35°02' E 136°50'0 0.0
2017-Nov-30 08:30N 35°02' E 136°50'0 0.0
2017-Nov-30 08:00N 35°02' E 136°50'0 0.0
2017-Nov-30 07:30N 35°02' E 136°50'0 0.0
2017-Nov-30 06:57N 35°02' E 136°50'0 0.0
2017-Nov-30 06:30N 35°02' E 136°50'0 0.0
2017-Nov-30 06:00N 35°02' E 136°50'0 0.0
2017-Nov-30 05:27N 35°02' E 136°50'0 0.0
2017-Nov-30 05:00N 35°02' E 136°50'0 0.0
2017-Nov-30 04:30N 35°02' E 136°50'0 0.0
2017-Nov-30 04:00N 35°02' E 136°50'0 0.0
2017-Nov-30 03:30N 35°02' E 136°50'0 0.0
2017-Nov-30 03:00N 35°02' E 136°50'0 0.0
2017-Nov-30 02:30N 35°02' E 136°50'0 0.0
2017-Nov-30 02:00N 35°02' E 136°50'0 0.0
2017-Nov-30 01:30N 35°02' E 136°50'0 0.0
2017-Nov-30 01:00N 35°02' E 136°50'0 0.0
2017-Nov-30 00:30N 35°02' E 136°50'0 0.0
2017-Nov-30 00:00N 35°02' E 136°50'0 0.0
2017-Nov-29 23:30N 35°02' E 136°50'0 0.4
2017-Nov-29 23:00N 35°02' E 136°50'5 9.8
2017-Nov-29 22:30N 34°58' E 136°48'815.5
2017-Nov-29 22:00N 34°50' E 136°47'918.5
2017-Nov-29 21:30N 34°42' E 136°52'918.3
2017-Nov-29 21:00N 34°35' E 136°59'611.6
2017-Nov-29 20:30N 34°31' E 137°04'2913.6
2017-Nov-29 18:21N 34°05' E 136°48'616.4
2017-Nov-29 18:00N 34°01' E 136°43'8414.6
2017-Nov-29 12:14N 33°47' E 135°04'818.4
2017-Nov-29 11:46N 33°55' E 135°00'619.0
2017-Nov-29 11:28N 34°00' E 134°59'918.5
2017-Nov-29 11:00N 34°09' E 134°58'714.1
2017-Nov-29 10:30N 34°16' E 134°58'917.2
2017-Nov-29 10:00N 34°24' E 135°02'918.9
2017-Nov-29 09:30N 34°30' E 135°11'918.2
2017-Nov-29 09:00N 34°38' E 135°16'3 4.9
2017-Nov-29 08:28N 34°41' E 135°16'0 0.0
2017-Nov-29 07:58N 34°41' E 135°16'0 0.0
2017-Nov-29 07:28N 34°41' E 135°16'0 0.0
2017-Nov-29 06:58N 34°41' E 135°16'0 0.0
2017-Nov-29 06:25N 34°41' E 135°16'0 0.0
2017-Nov-29 05:58N 34°41' E 135°16'0 0.0
2017-Nov-29 05:28N 34°41' E 135°16'0 0.0
2017-Nov-29 04:58N 34°41' E 135°16'0 0.0
2017-Nov-29 04:28N 34°41' E 135°16'0 0.0
2017-Nov-29 03:58N 34°41' E 135°16'0 0.0
2017-Nov-29 03:28N 34°41' E 135°16'0 0.0
2017-Nov-29 02:58N 34°41' E 135°16'0 0.0
2017-Nov-29 02:28N 34°41' E 135°16'0 0.0
2017-Nov-29 01:58N 34°41' E 135°16'0 0.0
2017-Nov-29 01:28N 34°41' E 135°16'0 0.0
2017-Nov-29 00:58N 34°41' E 135°16'0 0.0
2017-Nov-29 00:28N 34°41' E 135°16'0 0.1
2017-Nov-28 23:58N 34°41' E 135°16'0 0.1
2017-Nov-28 23:28N 34°41' E 135°16'0 0.0
2017-Nov-28 22:58N 34°41' E 135°16'0 0.0
2017-Nov-28 22:28N 34°41' E 135°16'0 0.0
2017-Nov-28 21:58N 34°41' E 135°16'0 0.0
2017-Nov-28 21:28N 34°41' E 135°16'0 0.0
2017-Nov-28 20:58N 34°41' E 135°16'0 0.0
2017-Nov-28 20:28N 34°41' E 135°16'0 0.0
2017-Nov-28 19:58N 34°41' E 135°16'0 0.0
2017-Nov-28 19:28N 34°41' E 135°16'0 0.0
2017-Nov-28 18:58N 34°41' E 135°16'0 0.0
2017-Nov-28 18:28N 34°41' E 135°16'0 0.0
2017-Nov-28 17:58N 34°41' E 135°16'0 0.0
2017-Nov-28 17:28N 34°41' E 135°16'0 0.0
2017-Nov-28 16:58N 34°41' E 135°16'0 0.0
2017-Nov-28 16:28N 34°41' E 135°16'0 0.0
2017-Nov-28 15:58N 34°41' E 135°16'0 0.0
2017-Nov-28 14:58N 34°41' E 135°16'0 0.0
2017-Nov-28 14:28N 34°41' E 135°16'0 0.0
2017-Nov-28 13:55N 34°41' E 135°16'0 0.0
2017-Nov-28 13:28N 34°41' E 135°16'0 0.0
2017-Nov-28 12:58N 34°41' E 135°16'0 0.0
2017-Nov-28 12:25N 34°41' E 135°16'0 0.0
2017-Nov-28 11:58N 34°41' E 135°16'0 0.0
2017-Nov-28 11:28N 34°41' E 135°16'0 1.0
2017-Nov-28 11:00N 34°41' E 135°16'2 4.5
2017-Nov-28 10:30N 34°39' E 135°18'612.6
2017-Nov-28 10:00N 34°34' E 135°15'917.5
2017-Nov-28 09:30N 34°27' E 135°08'917.8
2017-Nov-28 09:00N 34°20' E 135°01'816.7
2017-Nov-28 08:30N 34°12' E 134°60'613.0
2017-Nov-28 08:00N 34°06' E 135°01'714.3
2017-Nov-28 07:31N 33°58' E 135°00'714.7
2017-Nov-28 07:01N 33°51' E 135°00'917.1
2017-Nov-28 06:29N 33°43' E 135°05'14017.4
2017-Nov-27 22:26N 34°06' E 137°51'1121.0
2017-Nov-27 21:55N 34°11' E 138°03'1020.9
2017-Nov-27 21:26N 34°15' E 138°14'1020.8
2017-Nov-27 20:58N 34°19' E 138°25'1120.7
2017-Nov-27 20:28N 34°23' E 138°36'1020.8
2017-Nov-27 20:00N 34°27' E 138°47'1020.0
2017-Nov-27 19:30N 34°32' E 138°57'918.8
2017-Nov-27 19:00N 34°40' E 139°05'1020.0
2017-Nov-27 18:30N 34°47' E 139°12'1019.1
2017-Nov-27 17:59N 34°55' E 139°20'918.4
2017-Nov-27 17:30N 34°60' E 139°29'1019.7
2017-Nov-27 17:00N 35°05' E 139°40'816.9
2017-Nov-27 16:31N 35°11' E 139°46'510.8
2017-Nov-27 16:00N 35°17' E 139°45'611.9
2017-Nov-27 15:30N 35°22' E 139°42'713.9
2017-Nov-27 15:01N 35°28' E 139°48'612.7
2017-Nov-27 14:30N 35°34' E 139°49'4 7.4
2017-Nov-27 14:00N 35°37' E 139°46'0 0.2
2017-Nov-27 13:29N 35°37' E 139°46'0 0.0
2017-Nov-27 12:59N 35°37' E 139°46'0 0.0
2017-Nov-27 12:26N 35°37' E 139°46'0 0.0
2017-Nov-27 11:59N 35°37' E 139°46'0 0.0
2017-Nov-27 11:29N 35°37' E 139°46'0 0.0
2017-Nov-27 10:56N 35°37' E 139°46'0 0.0
2017-Nov-27 10:29N 35°37' E 139°46'0 0.0
2017-Nov-27 09:59N 35°37' E 139°46'0 0.0
2017-Nov-27 09:29N 35°37' E 139°46'0 0.0
2017-Nov-27 08:56N 35°37' E 139°46'0 0.0
2017-Nov-27 08:29N 35°37' E 139°46'0 0.0
2017-Nov-27 07:59N 35°37' E 139°46'0 0.0
2017-Nov-27 07:26N 35°37' E 139°46'0 0.0
2017-Nov-27 06:59N 35°37' E 139°46'0 0.0
2017-Nov-27 06:29N 35°37' E 139°46'0 0.0
2017-Nov-27 05:59N 35°37' E 139°46'0 0.0
2017-Nov-27 05:29N 35°37' E 139°46'0 0.0
2017-Nov-27 04:59N 35°37' E 139°46'0 0.0
2017-Nov-27 04:26N 35°37' E 139°46'0 0.0
2017-Nov-27 03:59N 35°37' E 139°46'0 0.0
2017-Nov-27 03:29N 35°37' E 139°46'0 0.0
2017-Nov-27 02:59N 35°37' E 139°46'0 0.0
2017-Nov-27 02:29N 35°37' E 139°46'0 0.0
2017-Nov-27 01:59N 35°37' E 139°46'0 0.0
2017-Nov-27 01:20N 35°37' E 139°46'0 0.0
2017-Nov-27 00:59N 35°37' E 139°46'0 0.0
2017-Nov-27 00:29N 35°37' E 139°46'0 0.0
2017-Nov-26 23:59N 35°37' E 139°46'0 0.0
2017-Nov-26 23:29N 35°37' E 139°46'0 0.0
2017-Nov-26 22:59N 35°37' E 139°46'0 0.0
2017-Nov-26 22:27N 35°37' E 139°46'1 2.6
2017-Nov-26 22:00N 35°36' E 139°47'611.5
2017-Nov-26 21:31N 35°32' E 139°52'612.6
2017-Nov-26 21:01N 35°26' E 139°49'612.9
2017-Nov-26 20:31N 35°21' E 139°45'612.3
2017-Nov-26 20:01N 35°15' E 139°47'611.3
2017-Nov-26 19:31N 35°09' E 139°47'3 6.7
2017-Nov-26 19:01N 35°06' E 139°45'4 7.8
2017-Nov-26 18:31N 35°02' E 139°44'5 9.3
2017-Nov-26 18:00N 34°58' E 139°42'5 9.5
2017-Nov-26 17:31N 34°54' E 139°45'5 9.2
2017-Nov-26 17:01N 34°50' E 139°48'5 9.2
2017-Nov-26 16:25N 34°48' E 139°54'4 9.7
2017-Nov-26 16:00N 34°48' E 139°59'5 9.6
2017-Nov-26 15:30N 34°49' E 140°05'5 9.8
2017-Nov-26 14:58N 34°50' E 140°11'6 9.9
2017-Nov-26 14:19N 34°51' E 140°19'  
Track history (hours):
 
Tides and Currents Weather Stations Pressure Air Temp Water Temp Dewpoint Dewpoint Depression Visibility Wind Speed Wind Dir Waves Ship Positions

Bay Bridge

Last reported at 2017-Dec-02 14:46 UTC. Time now 2017-Dec-14 08:18 UTC.
Position N 34°48' E 140°15'.
Warning: this ship's position is 11 days out of date.

Length 267 m; draft 10.9 m.

Type: Ship (hazmat cat A). MMSI: 354120000.

Date/timePositionNaut miles runAvg speedWind from/ knotsBaromVisibWave heightAir tempDewpointWater temp
2017-Dec-02 14:46N 34°48' E 140°15'2220.2
2017-Dec-02 13:40N 34°52' E 139°49'320.1
2017-Dec-02 13:30N 34°54' E 139°45'1121.2
2017-Dec-02 13:00N 35°04' E 139°43'817.1
2017-Dec-02 12:30N 35°12' E 139°46'612.3
2017-Dec-02 12:00N 35°18' E 139°44'713.9
2017-Dec-02 11:30N 35°25' E 139°43'816.6
2017-Dec-02 11:01N 35°30' E 139°51'713.8
2017-Dec-02 10:30N 35°36' E 139°47'1 2.3
2017-Dec-02 09:59N 35°37' E 139°46'0 0.0
2017-Dec-02 09:29N 35°37' E 139°46'0 0.0
2017-Dec-02 08:59N 35°37' E 139°46'0 0.0
2017-Dec-02 08:29N 35°37' E 139°46'0 0.0
2017-Dec-02 07:59N 35°37' E 139°46'0 0.0
2017-Dec-02 07:29N 35°37' E 139°46'0 0.0
2017-Dec-02 06:59N 35°37' E 139°46'0 0.0
2017-Dec-02 06:29N 35°37' E 139°46'0 0.0
2017-Dec-02 05:59N 35°37' E 139°46'0 0.0
2017-Dec-02 05:29N 35°37' E 139°46'0 0.0
2017-Dec-02 04:59N 35°37' E 139°46'0 0.0
2017-Dec-02 04:29N 35°37' E 139°46'0 0.0
2017-Dec-02 03:59N 35°37' E 139°46'0 0.0
2017-Dec-02 03:29N 35°37' E 139°46'0 0.0
2017-Dec-02 02:59N 35°37' E 139°46'0 0.0
2017-Dec-02 02:29N 35°37' E 139°46'0 0.0
2017-Dec-02 01:59N 35°37' E 139°46'0 0.0
2017-Dec-02 01:29N 35°37' E 139°46'0 0.0
2017-Dec-02 00:59N 35°37' E 139°46'0 0.0
2017-Dec-02 00:29N 35°37' E 139°46'0 0.0
2017-Dec-01 23:59N 35°37' E 139°46'0 0.0
2017-Dec-01 23:29N 35°37' E 139°46'0 0.0
2017-Dec-01 22:59N 35°37' E 139°46'0 0.0
2017-Dec-01 22:29N 35°37' E 139°46'0 0.1
2017-Dec-01 22:00N 35°37' E 139°46'2 4.9
2017-Dec-01 21:30N 35°35' E 139°48'612.8
2017-Dec-01 21:01N 35°29' E 139°52'714.6
2017-Dec-01 20:30N 35°24' E 139°46'611.9
2017-Dec-01 20:00N 35°18' E 139°44'612.7
2017-Dec-01 19:30N 35°12' E 139°47'5 9.5
2017-Dec-01 19:00N 35°07' E 139°46'5 9.7
2017-Dec-01 18:31N 35°03' E 139°44'611.8
2017-Dec-01 18:00N 34°57' E 139°41'611.8
2017-Dec-01 17:30N 34°52' E 139°39'611.6
2017-Dec-01 17:00N 34°46' E 139°37'2 1.7
2017-Dec-01 15:48N 34°44' E 139°38'1 1.9
2017-Dec-01 15:30N 34°45' E 139°39'2 2.0
2017-Dec-01 14:39N 34°46' E 139°39'0 2.2
2017-Dec-01 14:30N 34°47' E 139°39'0 0.9
2017-Dec-01 14:00N 34°47' E 139°39'1 0.6
2017-Dec-01 12:46N 34°48' E 139°39'2 6.9
2017-Dec-01 12:30N 34°47' E 139°38'814.3
2017-Dec-01 11:56N 34°41' E 139°31'1113.2
2017-Dec-01 11:08N 34°36' E 139°20'214.7
2017-Dec-01 11:00N 34°35' E 139°18'814.4
2017-Dec-01 10:27N 34°34' E 139°08'817.6
2017-Dec-01 09:58N 34°33' E 138°58'815.9
2017-Dec-01 09:27N 34°34' E 138°48'716.0
2017-Dec-01 09:00N 34°38' E 138°40'4 8.6
2017-Dec-01 08:31N 34°42' E 138°39'4 8.2
2017-Dec-01 08:01N 34°46' E 138°38'4 8.5
2017-Dec-01 07:30N 34°50' E 138°36'5 9.5
2017-Dec-01 07:01N 34°54' E 138°35'611.2
2017-Dec-01 06:30N 34°60' E 138°33'3 5.3
2017-Dec-01 06:01N 35°02' E 138°31'1 1.2
2017-Dec-01 05:30N 35°02' E 138°31'0 0.0
2017-Dec-01 05:00N 35°02' E 138°31'0 0.0
2017-Dec-01 04:30N 35°02' E 138°31'0 0.0
2017-Dec-01 04:00N 35°02' E 138°31'0 0.0
2017-Dec-01 03:30N 35°02' E 138°31'0 0.0
2017-Dec-01 03:00N 35°02' E 138°31'0 0.0
2017-Dec-01 02:30N 35°02' E 138°31'0 0.0
2017-Dec-01 02:00N 35°02' E 138°31'0 0.0
2017-Dec-01 01:30N 35°02' E 138°31'0 0.0
2017-Dec-01 01:00N 35°02' E 138°31'0 0.0
2017-Dec-01 00:30N 35°02' E 138°31'0 0.0
2017-Dec-01 00:00N 35°02' E 138°31'0 0.0
2017-Nov-30 23:30N 35°02' E 138°31'0 0.0
2017-Nov-30 23:00N 35°02' E 138°31'0 0.0
2017-Nov-30 22:30N 35°02' E 138°31'0 0.0
2017-Nov-30 22:00N 35°02' E 138°31'1 2.1
2017-Nov-30 21:31N 35°02' E 138°32'4 8.6
2017-Nov-30 21:01N 34°58' E 138°34'714.1
2017-Nov-30 20:30N 34°51' E 138°30'714.3
2017-Nov-30 20:00N 34°45' E 138°26'713.7
2017-Nov-30 19:30N 34°39' E 138°23'713.1
2017-Nov-30 19:00N 34°33' E 138°20'713.9
2017-Nov-30 18:30N 34°29' E 138°12'814.5
2017-Nov-30 17:57N 34°29' E 138°03'715.2
2017-Nov-30 17:29N 34°29' E 137°54'1015.2
2017-Nov-30 16:52N 34°29' E 137°43'1314.8
2017-Nov-30 15:58N 34°29' E 137°27'2713.2
2017-Nov-30 13:54N 34°37' E 136°55'918.3
2017-Nov-30 13:24N 34°44' E 136°48'718.0
2017-Nov-30 13:00N 34°51' E 136°46'917.0
2017-Nov-30 12:30N 34°59' E 136°49'3 6.6
2017-Nov-30 12:00N 35°02' E 136°50'0 0.2
2017-Nov-30 11:27N 35°02' E 136°50'0 0.0
2017-Nov-30 11:00N 35°02' E 136°50'0 0.0
2017-Nov-30 10:30N 35°02' E 136°50'0 0.0
2017-Nov-30 10:00N 35°02' E 136°50'0 0.0
2017-Nov-30 09:30N 35°02' E 136°50'0 0.0
2017-Nov-30 08:57N 35°02' E 136°50'0 0.0
2017-Nov-30 08:30N 35°02' E 136°50'0 0.0
2017-Nov-30 08:00N 35°02' E 136°50'0 0.0
2017-Nov-30 07:30N 35°02' E 136°50'0 0.0
2017-Nov-30 06:57N 35°02' E 136°50'0 0.0
2017-Nov-30 06:30N 35°02' E 136°50'0 0.0
2017-Nov-30 06:00N 35°02' E 136°50'0 0.0
2017-Nov-30 05:27N 35°02' E 136°50'0 0.0
2017-Nov-30 05:00N 35°02' E 136°50'0 0.0
2017-Nov-30 04:30N 35°02' E 136°50'0 0.0
2017-Nov-30 04:00N 35°02' E 136°50'0 0.0
2017-Nov-30 03:30N 35°02' E 136°50'0 0.0
2017-Nov-30 03:00N 35°02' E 136°50'0 0.0
2017-Nov-30 02:30N 35°02' E 136°50'0 0.0
2017-Nov-30 02:00N 35°02' E 136°50'0 0.0
2017-Nov-30 01:30N 35°02' E 136°50'0 0.0
2017-Nov-30 01:00N 35°02' E 136°50'0 0.0
2017-Nov-30 00:30N 35°02' E 136°50'0 0.0
2017-Nov-30 00:00N 35°02' E 136°50'0 0.0
2017-Nov-29 23:30N 35°02' E 136°50'0 0.4
2017-Nov-29 23:00N 35°02' E 136°50'5 9.8
2017-Nov-29 22:30N 34°58' E 136°48'815.5
2017-Nov-29 22:00N 34°50' E 136°47'918.5
2017-Nov-29 21:30N 34°42' E 136°52'918.3
2017-Nov-29 21:00N 34°35' E 136°59'611.6
2017-Nov-29 20:30N 34°31' E 137°04'2913.6
2017-Nov-29 18:21N 34°05' E 136°48'616.4
2017-Nov-29 18:00N 34°01' E 136°43'8414.6
2017-Nov-29 12:14N 33°47' E 135°04'818.4
2017-Nov-29 11:46N 33°55' E 135°00'619.0
2017-Nov-29 11:28N 34°00' E 134°59'918.5
2017-Nov-29 11:00N 34°09' E 134°58'714.1
2017-Nov-29 10:30N 34°16' E 134°58'917.2
2017-Nov-29 10:00N 34°24' E 135°02'918.9
2017-Nov-29 09:30N 34°30' E 135°11'918.2
2017-Nov-29 09:00N 34°38' E 135°16'3 4.9
2017-Nov-29 08:28N 34°41' E 135°16'0 0.0
2017-Nov-29 07:58N 34°41' E 135°16'0 0.0
2017-Nov-29 07:28N 34°41' E 135°16'0 0.0
2017-Nov-29 06:58N 34°41' E 135°16'0 0.0
2017-Nov-29 06:25N 34°41' E 135°16'0 0.0
2017-Nov-29 05:58N 34°41' E 135°16'0 0.0
2017-Nov-29 05:28N 34°41' E 135°16'0 0.0
2017-Nov-29 04:58N 34°41' E 135°16'0 0.0
2017-Nov-29 04:28N 34°41' E 135°16'0 0.0
2017-Nov-29 03:58N 34°41' E 135°16'0 0.0
2017-Nov-29 03:28N 34°41' E 135°16'0 0.0
2017-Nov-29 02:58N 34°41' E 135°16'0 0.0
2017-Nov-29 02:28N 34°41' E 135°16'0 0.0
2017-Nov-29 01:58N 34°41' E 135°16'0 0.0
2017-Nov-29 01:28N 34°41' E 135°16'0 0.0
2017-Nov-29 00:58N 34°41' E 135°16'0 0.0
2017-Nov-29 00:28N 34°41' E 135°16'0 0.1
2017-Nov-28 23:58N 34°41' E 135°16'0 0.1
2017-Nov-28 23:28N 34°41' E 135°16'0 0.0
2017-Nov-28 22:58N 34°41' E 135°16'0 0.0
2017-Nov-28 22:28N 34°41' E 135°16'0 0.0
2017-Nov-28 21:58N 34°41' E 135°16'0 0.0
2017-Nov-28 21:28N 34°41' E 135°16'0 0.0
2017-Nov-28 20:58N 34°41' E 135°16'0 0.0
2017-Nov-28 20:28N 34°41' E 135°16'0 0.0
2017-Nov-28 19:58N 34°41' E 135°16'0 0.0
2017-Nov-28 19:28N 34°41' E 135°16'0 0.0
2017-Nov-28 18:58N 34°41' E 135°16'0 0.0
2017-Nov-28 18:28N 34°41' E 135°16'0 0.0
2017-Nov-28 17:58N 34°41' E 135°16'0 0.0
2017-Nov-28 17:28N 34°41' E 135°16'0 0.0
2017-Nov-28 16:58N 34°41' E 135°16'0 0.0
2017-Nov-28 16:28N 34°41' E 135°16'0 0.0
2017-Nov-28 15:58N 34°41' E 135°16'0 0.0
2017-Nov-28 14:58N 34°41' E 135°16'0 0.0
2017-Nov-28 14:28N 34°41' E 135°16'0 0.0
2017-Nov-28 13:55N 34°41' E 135°16'0 0.0
2017-Nov-28 13:28N 34°41' E 135°16'0 0.0
2017-Nov-28 12:58N 34°41' E 135°16'0 0.0
2017-Nov-28 12:25N 34°41' E 135°16'0 0.0
2017-Nov-28 11:58N 34°41' E 135°16'0 0.0
2017-Nov-28 11:28N 34°41' E 135°16'0 1.0
2017-Nov-28 11:00N 34°41' E 135°16'2 4.5
2017-Nov-28 10:30N 34°39' E 135°18'612.6
2017-Nov-28 10:00N 34°34' E 135°15'917.5
2017-Nov-28 09:30N 34°27' E 135°08'917.8
2017-Nov-28 09:00N 34°20' E 135°01'816.7
2017-Nov-28 08:30N 34°12' E 134°60'613.0
2017-Nov-28 08:00N 34°06' E 135°01'714.3
2017-Nov-28 07:31N 33°58' E 135°00'714.7
2017-Nov-28 07:01N 33°51' E 135°00'917.1
2017-Nov-28 06:29N 33°43' E 135°05'14017.4
2017-Nov-27 22:26N 34°06' E 137°51'1121.0
2017-Nov-27 21:55N 34°11' E 138°03'1020.9
2017-Nov-27 21:26N 34°15' E 138°14'1020.8
2017-Nov-27 20:58N 34°19' E 138°25'1120.7
2017-Nov-27 20:28N 34°23' E 138°36'1020.8
2017-Nov-27 20:00N 34°27' E 138°47'1020.0
2017-Nov-27 19:30N 34°32' E 138°57'918.8
2017-Nov-27 19:00N 34°40' E 139°05'1020.0
2017-Nov-27 18:30N 34°47' E 139°12'1019.1
2017-Nov-27 17:59N 34°55' E 139°20'918.4
2017-Nov-27 17:30N 34°60' E 139°29'1019.7
2017-Nov-27 17:00N 35°05' E 139°40'816.9
2017-Nov-27 16:31N 35°11' E 139°46'510.8
2017-Nov-27 16:00N 35°17' E 139°45'611.9
2017-Nov-27 15:30N 35°22' E 139°42'713.9
2017-Nov-27 15:01N 35°28' E 139°48'612.7
2017-Nov-27 14:30N 35°34' E 139°49'4 7.4
2017-Nov-27 14:00N 35°37' E 139°46'0 0.2
2017-Nov-27 13:29N 35°37' E 139°46'0 0.0
2017-Nov-27 12:59N 35°37' E 139°46'0 0.0
2017-Nov-27 12:26N 35°37' E 139°46'0 0.0
2017-Nov-27 11:59N 35°37' E 139°46'0 0.0
2017-Nov-27 11:29N 35°37' E 139°46'0 0.0
2017-Nov-27 10:56N 35°37' E 139°46'0 0.0
2017-Nov-27 10:29N 35°37' E 139°46'0 0.0
2017-Nov-27 09:59N 35°37' E 139°46'0 0.0
2017-Nov-27 09:29N 35°37' E 139°46'0 0.0
2017-Nov-27 08:56N 35°37' E 139°46'0 0.0
2017-Nov-27 08:29N 35°37' E 139°46'0 0.0
2017-Nov-27 07:59N 35°37' E 139°46'0 0.0
2017-Nov-27 07:26N 35°37' E 139°46'0 0.0
2017-Nov-27 06:59N 35°37' E 139°46'0 0.0
2017-Nov-27 06:29N 35°37' E 139°46'0 0.0
2017-Nov-27 05:59N 35°37' E 139°46'0 0.0
2017-Nov-27 05:29N 35°37' E 139°46'0 0.0
2017-Nov-27 04:59N 35°37' E 139°46'0 0.0
2017-Nov-27 04:26N 35°37' E 139°46'0 0.0
2017-Nov-27 03:59N 35°37' E 139°46'0 0.0
2017-Nov-27 03:29N 35°37' E 139°46'0 0.0
2017-Nov-27 02:59N 35°37' E 139°46'0 0.0
2017-Nov-27 02:29N 35°37' E 139°46'0 0.0
2017-Nov-27 01:59N 35°37' E 139°46'0 0.0
2017-Nov-27 01:20N 35°37' E 139°46'0 0.0
2017-Nov-27 00:59N 35°37' E 139°46'0 0.0
2017-Nov-27 00:29N 35°37' E 139°46'0 0.0
2017-Nov-26 23:59N 35°37' E 139°46'0 0.0
2017-Nov-26 23:29N 35°37' E 139°46'0 0.0
2017-Nov-26 22:59N 35°37' E 139°46'0 0.0
2017-Nov-26 22:27N 35°37' E 139°46'1 2.6
2017-Nov-26 22:00N 35°36' E 139°47'611.5
2017-Nov-26 21:31N 35°32' E 139°52'612.6
2017-Nov-26 21:01N 35°26' E 139°49'612.9
2017-Nov-26 20:31N 35°21' E 139°45'612.3
2017-Nov-26 20:01N 35°15' E 139°47'611.3
2017-Nov-26 19:31N 35°09' E 139°47'3 6.7
2017-Nov-26 19:01N 35°06' E 139°45'4 7.8
2017-Nov-26 18:31N 35°02' E 139°44'5 9.3
2017-Nov-26 18:00N 34°58' E 139°42'5 9.5
2017-Nov-26 17:31N 34°54' E 139°45'5 9.2
2017-Nov-26 17:01N 34°50' E 139°48'5 9.2
2017-Nov-26 16:25N 34°48' E 139°54'4 9.7
2017-Nov-26 16:00N 34°48' E 139°59'5 9.6
2017-Nov-26 15:30N 34°49' E 140°05'5 9.8
2017-Nov-26 14:58N 34°50' E 140°11'6 9.9
2017-Nov-26 14:19N 34°51' E 140°19'  

Dump ship's entire track history